MYNN

Nassau

Airport
ICAO code
MYNN
Summary
ICAO Region
CARSAM
ICAO Territory
Location

Nassau,

Coordinates
25° 2' 20" N , 77° 27' 58" W
KCC
Airport WX
Tropical Revolving Storm
Metar
MYNN 230100Z 08006KT 9999 FEW015CB SCT200 29/24 A3005

Description

Lynden Pindling International Airport, formerly known as Nassau International Airport, is the largest airport in The Bahamas, and the largest international gateway into the country.

Climatology

Tropical Monsoon climate (Köppen climate classification Am) - monthly mean temperatures above 18°C in every month of the year and features wet and dry seasons. A tropical monsoon climate typically features less pronounced dry seasons than a tropical savanna climate and see less variance in temperatures during the course of the year. The driest month nearly always occurs at or soon after the "winter" solstice.

Runways

Designator Length Width Surface Rops
9/27 2537 46 ASP Yes/Yes
14/32 3358 46 ASP Yes/Yes

Airport map

Aerial View

SKYbrary Partners:

Safety knowledge contributed by: